sensor_id;sensor_type;location;lat;lon;timestamp;temperature;humidity
25825;DHT22;13658;44.534;18.694;2023-01-20T00:01:32;2.00;99.90
25825;DHT22;13658;44.534;18.694;2023-01-20T00:03:59;2.00;99.90
25825;DHT22;13658;44.534;18.694;2023-01-20T00:06:26;2.10;99.90
25825;DHT22;13658;44.534;18.694;2023-01-20T00:08:57;2.10;99.90
25825;DHT22;13658;44.534;18.694;2023-01-20T00:11:23;2.10;99.90
25825;DHT22;13658;44.534;18.694;2023-01-20T00:13:54;2.10;99.90
25825;DHT22;13658;44.534;18.694;2023-01-20T00:16:21;2.10;99.90
25825;DHT22;13658;44.534;18.694;2023-01-20T00:18:47;2.00;99.90
25825;DHT22;13658;44.534;18.694;2023-01-20T00:21:13;2.10;99.90
25825;DHT22;13658;44.534;18.694;2023-01-20T00:23:41;2.00;99.90
25825;DHT22;13658;44.534;18.694;2023-01-20T00:26:10;2.00;99.90
25825;DHT22;13658;44.534;18.694;2023-01-20T00:28:36;1.90;99.90
25825;DHT22;13658;44.534;18.694;2023-01-20T00:31:34;1.90;99.90
25825;DHT22;13658;44.534;18.694;2023-01-20T00:34:01;1.80;99.90
25825;DHT22;13658;44.534;18.694;2023-01-20T00:36:30;1.70;99.90
25825;DHT22;13658;44.534;18.694;2023-01-20T00:38:56;1.60;99.90
25825;DHT22;13658;44.534;18.694;2023-01-20T00:41:23;1.60;99.90
25825;DHT22;13658;44.534;18.694;2023-01-20T00:43:49;1.50;99.90
25825;DHT22;13658;44.534;18.694;2023-01-20T00:46:15;1.50;99.90
25825;DHT22;13658;44.534;18.694;2023-01-20T00:48:41;1.60;99.90
25825;DHT22;13658;44.534;18.694;2023-01-20T00:51:08;1.60;99.90
25825;DHT22;13658;44.534;18.694;2023-01-20T00:53:35;1.70;99.90
25825;DHT22;13658;44.534;18.694;2023-01-20T00:56:01;1.60;99.90
25825;DHT22;13658;44.534;18.694;2023-01-20T00:58:27;1.70;99.90
25825;DHT22;13658;44.534;18.694;2023-01-20T01:00:53;1.70;99.90
25825;DHT22;13658;44.534;18.694;2023-01-20T01:03:20;1.90;99.90
25825;DHT22;13658;44.534;18.694;2023-01-20T01:05:46;1.80;99.90
25825;DHT22;13658;44.534;18.694;2023-01-20T01:08:13;1.80;99.90
25825;DHT22;13658;44.534;18.694;2023-01-20T01:10:39;1.80;99.90
25825;DHT22;13658;44.534;18.694;2023-01-20T01:13:06;1.80;99.90
25825;DHT22;13658;44.534;18.694;2023-01-20T01:15:32;1.70;99.90
25825;DHT22;13658;44.534;18.694;2023-01-20T01:17:59;1.50;99.90
25825;DHT22;13658;44.534;18.694;2023-01-20T01:20:26;1.50;99.90
25825;DHT22;13658;44.534;18.694;2023-01-20T01:22:53;1.50;99.90
25825;DHT22;13658;44.534;18.694;2023-01-20T01:25:19;1.50;99.90
25825;DHT22;13658;44.534;18.694;2023-01-20T01:27:45;1.60;99.90
25825;DHT22;13658;44.534;18.694;2023-01-20T01:30:11;1.60;99.90
25825;DHT22;13658;44.534;18.694;2023-01-20T01:32:37;1.60;99.90
25825;DHT22;13658;44.534;18.694;2023-01-20T01:35:03;1.50;99.90
25825;DHT22;13658;44.534;18.694;2023-01-20T01:37:29;1.50;99.90
25825;DHT22;13658;44.534;18.694;2023-01-20T01:39:55;1.50;99.90
25825;DHT22;13658;44.534;18.694;2023-01-20T01:42:23;1.60;99.90
25825;DHT22;13658;44.534;18.694;2023-01-20T01:50:10;1.50;99.90
25825;DHT22;13658;44.534;18.694;2023-01-20T01:52:39;1.60;99.90
25825;DHT22;13658;44.534;18.694;2023-01-20T01:55:07;1.50;99.90
25825;DHT22;13658;44.534;18.694;2023-01-20T01:57:34;1.50;99.90
25825;DHT22;13658;44.534;18.694;2023-01-20T02:00:02;1.50;99.90
25825;DHT22;13658;44.534;18.694;2023-01-20T02:02:39;1.60;99.90
25825;DHT22;13658;44.534;18.694;2023-01-20T02:05:06;1.60;99.90
25825;DHT22;13658;44.534;18.694;2023-01-20T02:07:32;1.40;99.90
25825;DHT22;13658;44.534;18.694;2023-01-20T02:10:00;1.50;99.90
25825;DHT22;13658;44.534;18.694;2023-01-20T02:12:26;1.50;99.90
25825;DHT22;13658;44.534;18.694;2023-01-20T02:14:55;1.60;99.90
25825;DHT22;13658;44.534;18.694;2023-01-20T02:17:27;1.60;99.90
25825;DHT22;13658;44.534;18.694;2023-01-20T02:23:10;1.60;99.90
25825;DHT22;13658;44.534;18.694;2023-01-20T02:33:48;1.70;99.90
25825;DHT22;13658;44.534;18.694;2023-01-20T02:36:44;1.70;99.90
25825;DHT22;13658;44.534;18.694;2023-01-20T02:39:33;1.70;99.90
25825;DHT22;13658;44.534;18.694;2023-01-20T02:42:12;1.40;99.90
25825;DHT22;13658;44.534;18.694;2023-01-20T02:52:45;1.30;99.90
25825;DHT22;13658;44.534;18.694;2023-01-20T02:55:39;1.30;99.90
25825;DHT22;13658;44.534;18.694;2023-01-20T02:58:13;1.20;99.90
25825;DHT22;13658;44.534;18.694;2023-01-20T03:01:04;1.20;99.90
25825;DHT22;13658;44.534;18.694;2023-01-20T03:03:37;1.10;99.90
25825;DHT22;13658;44.534;18.694;2023-01-20T03:06:09;1.10;99.90
25825;DHT22;13658;44.534;18.694;2023-01-20T03:08:39;1.10;99.90
25825;DHT22;13658;44.534;18.694;2023-01-20T03:11:07;1.30;99.90
25825;DHT22;13658;44.534;18.694;2023-01-20T03:16:03;1.40;99.90
25825;DHT22;13658;44.534;18.694;2023-01-20T03:18:32;1.40;99.90
25825;DHT22;13658;44.534;18.694;2023-01-20T03:20:59;1.50;99.90
25825;DHT22;13658;44.534;18.694;2023-01-20T03:23:26;1.50;99.90
25825;DHT22;13658;44.534;18.694;2023-01-20T03:25:53;1.60;99.90
25825;DHT22;13658;44.534;18.694;2023-01-20T03:28:20;1.60;99.90
25825;DHT22;13658;44.534;18.694;2023-01-20T03:30:46;1.60;99.90
25825;DHT22;13658;44.534;18.694;2023-01-20T03:33:13;1.60;99.90
25825;DHT22;13658;44.534;18.694;2023-01-20T03:35:39;1.70;99.90
25825;DHT22;13658;44.534;18.694;2023-01-20T03:38:06;1.70;99.90
25825;DHT22;13658;44.534;18.694;2023-01-20T03:40:39;1.70;99.90
25825;DHT22;13658;44.534;18.694;2023-01-20T03:43:18;1.70;99.90
25825;DHT22;13658;44.534;18.694;2023-01-20T03:45:56;1.50;99.90
25825;DHT22;13658;44.534;18.694;2023-01-20T03:48:39;1.40;99.90
25825;DHT22;13658;44.534;18.694;2023-01-20T03:51:11;1.30;99.90
25825;DHT22;13658;44.534;18.694;2023-01-20T03:53:50;1.30;99.90
25825;DHT22;13658;44.534;18.694;2023-01-20T03:56:24;1.30;99.90
25825;DHT22;13658;44.534;18.694;2023-01-20T03:58:52;1.40;99.90
25825;DHT22;13658;44.534;18.694;2023-01-20T04:01:24;1.30;99.90
25825;DHT22;13658;44.534;18.694;2023-01-20T04:03:52;1.30;99.90
25825;DHT22;13658;44.534;18.694;2023-01-20T04:06:21;1.40;99.90
25825;DHT22;13658;44.534;18.694;2023-01-20T04:09:05;1.50;99.90
25825;DHT22;13658;44.534;18.694;2023-01-20T04:11:32;1.60;99.90
25825;DHT22;13658;44.534;18.694;2023-01-20T04:13:58;1.60;99.90
25825;DHT22;13658;44.534;18.694;2023-01-20T04:16:25;1.60;99.90
25825;DHT22;13658;44.534;18.694;2023-01-20T04:18:52;1.50;99.90
25825;DHT22;13658;44.534;18.694;2023-01-20T04:21:42;1.60;99.90
25825;DHT22;13658;44.534;18.694;2023-01-20T04:24:23;1.60;99.90
25825;DHT22;13658;44.534;18.694;2023-01-20T04:26:49;1.70;99.90
25825;DHT22;13658;44.534;18.694;2023-01-20T04:29:15;1.60;99.90
25825;DHT22;13658;44.534;18.694;2023-01-20T04:31:41;1.60;99.90
25825;DHT22;13658;44.534;18.694;2023-01-20T04:34:11;1.50;99.90
25825;DHT22;13658;44.534;18.694;2023-01-20T04:36:37;1.40;99.90
25825;DHT22;13658;44.534;18.694;2023-01-20T04:39:03;1.40;99.90
25825;DHT22;13658;44.534;18.694;2023-01-20T04:41:29;1.40;99.90
25825;DHT22;13658;44.534;18.694;2023-01-20T04:43:55;1.50;99.90
25825;DHT22;13658;44.534;18.694;2023-01-20T04:46:21;1.60;99.90
25825;DHT22;13658;44.534;18.694;2023-01-20T04:48:47;1.60;99.90
25825;DHT22;13658;44.534;18.694;2023-01-20T04:51:13;1.50;99.90
25825;DHT22;13658;44.534;18.694;2023-01-20T04:53:39;1.60;99.90
25825;DHT22;13658;44.534;18.694;2023-01-20T04:56:13;1.60;99.90
25825;DHT22;13658;44.534;18.694;2023-01-20T04:58:40;1.70;99.90
25825;DHT22;13658;44.534;18.694;2023-01-20T05:01:06;1.70;99.90
25825;DHT22;13658;44.534;18.694;2023-01-20T05:03:34;1.70;99.90
25825;DHT22;13658;44.534;18.694;2023-01-20T05:06:00;1.70;99.90
25825;DHT22;13658;44.534;18.694;2023-01-20T05:08:26;1.60;99.90
25825;DHT22;13658;44.534;18.694;2023-01-20T05:10:52;1.50;99.90
25825;DHT22;13658;44.534;18.694;2023-01-20T05:13:18;1.60;99.90
25825;DHT22;13658;44.534;18.694;2023-01-20T05:15:44;1.60;99.90
25825;DHT22;13658;44.534;18.694;2023-01-20T05:18:10;1.60;99.90
25825;DHT22;13658;44.534;18.694;2023-01-20T05:20:36;1.60;99.90
25825;DHT22;13658;44.534;18.694;2023-01-20T05:23:02;1.60;99.90
25825;DHT22;13658;44.534;18.694;2023-01-20T05:25:28;1.50;99.90
25825;DHT22;13658;44.534;18.694;2023-01-20T05:27:54;1.40;99.90
25825;DHT22;13658;44.534;18.694;2023-01-20T05:30:20;1.30;99.90
25825;DHT22;13658;44.534;18.694;2023-01-20T05:32:48;1.20;99.90
25825;DHT22;13658;44.534;18.694;2023-01-20T05:35:15;1.30;99.90
25825;DHT22;13658;44.534;18.694;2023-01-20T05:37:41;1.40;99.90
25825;DHT22;13658;44.534;18.694;2023-01-20T05:40:08;1.40;99.90
25825;DHT22;13658;44.534;18.694;2023-01-20T05:42:34;1.40;99.90
25825;DHT22;13658;44.534;18.694;2023-01-20T05:45:00;1.60;99.90
25825;DHT22;13658;44.534;18.694;2023-01-20T05:47:26;1.70;99.90
25825;DHT22;13658;44.534;18.694;2023-01-20T05:49:53;1.70;99.90
25825;DHT22;13658;44.534;18.694;2023-01-20T05:52:19;1.80;99.90
25825;DHT22;13658;44.534;18.694;2023-01-20T05:54:45;1.80;99.90
25825;DHT22;13658;44.534;18.694;2023-01-20T05:57:11;1.70;99.90
25825;DHT22;13658;44.534;18.694;2023-01-20T05:59:46;1.80;99.90
25825;DHT22;13658;44.534;18.694;2023-01-20T06:02:13;1.80;99.90
25825;DHT22;13658;44.534;18.694;2023-01-20T06:04:44;1.70;99.90
25825;DHT22;13658;44.534;18.694;2023-01-20T06:07:10;1.60;99.90
25825;DHT22;13658;44.534;18.694;2023-01-20T06:09:36;1.60;99.90
25825;DHT22;13658;44.534;18.694;2023-01-20T06:12:02;1.70;99.90
25825;DHT22;13658;44.534;18.694;2023-01-20T06:14:28;1.70;99.90
25825;DHT22;13658;44.534;18.694;2023-01-20T06:16:54;1.60;99.90
25825;DHT22;13658;44.534;18.694;2023-01-20T06:19:20;1.40;99.90
25825;DHT22;13658;44.534;18.694;2023-01-20T06:21:47;1.50;99.90
25825;DHT22;13658;44.534;18.694;2023-01-20T06:24:13;1.40;99.90
25825;DHT22;13658;44.534;18.694;2023-01-20T06:26:39;1.40;99.90
25825;DHT22;13658;44.534;18.694;2023-01-20T06:29:05;1.40;99.90
25825;DHT22;13658;44.534;18.694;2023-01-20T06:31:31;1.40;99.90
25825;DHT22;13658;44.534;18.694;2023-01-20T06:33:57;1.40;99.90
25825;DHT22;13658;44.534;18.694;2023-01-20T06:36:23;1.30;99.90
25825;DHT22;13658;44.534;18.694;2023-01-20T06:38:49;1.30;99.90
25825;DHT22;13658;44.534;18.694;2023-01-20T06:41:17;1.30;99.90
25825;DHT22;13658;44.534;18.694;2023-01-20T06:43:43;1.30;99.90
25825;DHT22;13658;44.534;18.694;2023-01-20T06:46:11;1.30;99.90
25825;DHT22;13658;44.534;18.694;2023-01-20T06:48:38;1.40;99.90
25825;DHT22;13658;44.534;18.694;2023-01-20T06:51:13;1.40;99.90
25825;DHT22;13658;44.534;18.694;2023-01-20T06:53:39;1.30;99.90
25825;DHT22;13658;44.534;18.694;2023-01-20T06:56:05;1.20;99.90
25825;DHT22;13658;44.534;18.694;2023-01-20T06:58:33;1.30;99.90
25825;DHT22;13658;44.534;18.694;2023-01-20T07:01:20;1.20;99.90
25825;DHT22;13658;44.534;18.694;2023-01-20T07:03:46;1.30;99.90
25825;DHT22;13658;44.534;18.694;2023-01-20T07:06:25;1.70;99.90
25825;DHT22;13658;44.534;18.694;2023-01-20T07:08:52;2.00;99.90
25825;DHT22;13658;44.534;18.694;2023-01-20T07:11:17;1.70;99.90
25825;DHT22;13658;44.534;18.694;2023-01-20T07:13:44;2.20;99.90
25825;DHT22;13658;44.534;18.694;2023-01-20T07:16:10;1.70;99.90
25825;DHT22;13658;44.534;18.694;2023-01-20T07:18:37;2.30;99.90
25825;DHT22;13658;44.534;18.694;2023-01-20T07:21:03;2.30;99.90
25825;DHT22;13658;44.534;18.694;2023-01-20T07:23:30;2.10;99.90
25825;DHT22;13658;44.534;18.694;2023-01-20T07:26:04;1.90;99.90
25825;DHT22;13658;44.534;18.694;2023-01-20T07:28:31;1.90;99.90
25825;DHT22;13658;44.534;18.694;2023-01-20T07:31:05;1.90;99.90
25825;DHT22;13658;44.534;18.694;2023-01-20T07:33:32;2.00;99.90
25825;DHT22;13658;44.534;18.694;2023-01-20T07:35:59;2.40;99.90
25825;DHT22;13658;44.534;18.694;2023-01-20T07:38:25;2.10;99.90
25825;DHT22;13658;44.534;18.694;2023-01-20T07:40:51;2.30;99.90
25825;DHT22;13658;44.534;18.694;2023-01-20T07:43:17;2.00;99.90
25825;DHT22;13658;44.534;18.694;2023-01-20T07:45:43;1.90;99.90
25825;DHT22;13658;44.534;18.694;2023-01-20T07:48:09;2.20;99.90
25825;DHT22;13658;44.534;18.694;2023-01-20T07:50:36;2.10;99.90
25825;DHT22;13658;44.534;18.694;2023-01-20T07:53:02;1.80;99.90
25825;DHT22;13658;44.534;18.694;2023-01-20T07:55:28;1.70;99.90
25825;DHT22;13658;44.534;18.694;2023-01-20T07:57:54;1.80;99.90
25825;DHT22;13658;44.534;18.694;2023-01-20T08:00:21;1.70;99.90
25825;DHT22;13658;44.534;18.694;2023-01-20T08:02:47;1.50;99.90
25825;DHT22;13658;44.534;18.694;2023-01-20T08:05:13;1.70;99.90
25825;DHT22;13658;44.534;18.694;2023-01-20T08:07:39;1.80;99.90
25825;DHT22;13658;44.534;18.694;2023-01-20T08:10:05;1.80;99.90
25825;DHT22;13658;44.534;18.694;2023-01-20T08:12:32;1.60;99.90
25825;DHT22;13658;44.534;18.694;2023-01-20T08:14:58;1.50;99.90
25825;DHT22;13658;44.534;18.694;2023-01-20T08:17:24;1.60;99.90
25825;DHT22;13658;44.534;18.694;2023-01-20T08:19:50;1.70;99.90
25825;DHT22;13658;44.534;18.694;2023-01-20T08:22:16;1.60;99.90
25825;DHT22;13658;44.534;18.694;2023-01-20T08:24:42;1.60;99.90
25825;DHT22;13658;44.534;18.694;2023-01-20T08:27:08;1.70;99.90
25825;DHT22;13658;44.534;18.694;2023-01-20T08:29:34;1.80;99.90
25825;DHT22;13658;44.534;18.694;2023-01-20T08:32:00;1.80;99.90
25825;DHT22;13658;44.534;18.694;2023-01-20T08:34:27;1.70;99.90
25825;DHT22;13658;44.534;18.694;2023-01-20T08:36:54;1.60;99.90
25825;DHT22;13658;44.534;18.694;2023-01-20T08:39:22;1.60;99.90
25825;DHT22;13658;44.534;18.694;2023-01-20T08:41:48;1.70;99.90
25825;DHT22;13658;44.534;18.694;2023-01-20T08:44:15;1.80;99.90
25825;DHT22;13658;44.534;18.694;2023-01-20T08:46:42;1.80;99.90
25825;DHT22;13658;44.534;18.694;2023-01-20T08:49:17;1.90;99.90
25825;DHT22;13658;44.534;18.694;2023-01-20T08:51:44;2.10;99.90
25825;DHT22;13658;44.534;18.694;2023-01-20T08:54:10;2.10;99.90
25825;DHT22;13658;44.534;18.694;2023-01-20T08:56:36;2.10;99.90
25825;DHT22;13658;44.534;18.694;2023-01-20T08:59:02;2.10;99.90
25825;DHT22;13658;44.534;18.694;2023-01-20T09:01:31;2.00;99.90
25825;DHT22;13658;44.534;18.694;2023-01-20T09:03:58;1.90;99.90
25825;DHT22;13658;44.534;18.694;2023-01-20T09:06:24;1.90;99.90
25825;DHT22;13658;44.534;18.694;2023-01-20T09:08:52;2.00;99.90
25825;DHT22;13658;44.534;18.694;2023-01-20T09:11:21;2.20;99.90
25825;DHT22;13658;44.534;18.694;2023-01-20T09:13:47;2.30;99.90
25825;DHT22;13658;44.534;18.694;2023-01-20T09:16:14;2.30;99.90
25825;DHT22;13658;44.534;18.694;2023-01-20T09:18:41;2.10;99.90
25825;DHT22;13658;44.534;18.694;2023-01-20T09:21:08;2.20;99.90
25825;DHT22;13658;44.534;18.694;2023-01-20T09:23:36;1.90;99.90
25825;DHT22;13658;44.534;18.694;2023-01-20T09:26:04;2.00;99.90
25825;DHT22;13658;44.534;18.694;2023-01-20T09:28:31;2.10;99.90
25825;DHT22;13658;44.534;18.694;2023-01-20T09:31:04;1.90;99.90
25825;DHT22;13658;44.534;18.694;2023-01-20T09:33:32;2.10;99.90
25825;DHT22;13658;44.534;18.694;2023-01-20T09:36:01;2.20;99.90
25825;DHT22;13658;44.534;18.694;2023-01-20T09:38:27;2.30;99.90
25825;DHT22;13658;44.534;18.694;2023-01-20T09:41:17;2.20;99.90
25825;DHT22;13658;44.534;18.694;2023-01-20T09:50:27;2.50;99.90
25825;DHT22;13658;44.534;18.694;2023-01-20T09:53:33;2.50;99.90
25825;DHT22;13658;44.534;18.694;2023-01-20T09:56:03;2.70;99.90
25825;DHT22;13658;44.534;18.694;2023-01-20T09:58:34;2.60;99.90
25825;DHT22;13658;44.534;18.694;2023-01-20T10:06:53;2.40;99.90
25825;DHT22;13658;44.534;18.694;2023-01-20T10:09:30;2.30;99.90
25825;DHT22;13658;44.534;18.694;2023-01-20T10:14:51;2.50;99.90
25825;DHT22;13658;44.534;18.694;2023-01-20T10:17:36;2.50;99.90
25825;DHT22;13658;44.534;18.694;2023-01-20T10:20:09;2.50;99.90
25825;DHT22;13658;44.534;18.694;2023-01-20T10:22:49;2.50;99.90
25825;DHT22;13658;44.534;18.694;2023-01-20T10:30:56;2.80;99.90
25825;DHT22;13658;44.534;18.694;2023-01-20T10:33:38;3.00;99.90
25825;DHT22;13658;44.534;18.694;2023-01-20T10:36:15;2.80;99.90
25825;DHT22;13658;44.534;18.694;2023-01-20T10:41:48;2.70;99.90
25825;DHT22;13658;44.534;18.694;2023-01-20T10:44:13;2.80;99.90
25825;DHT22;13658;44.534;18.694;2023-01-20T10:52:13;2.90;99.90
25825;DHT22;13658;44.534;18.694;2023-01-20T10:54:47;2.50;99.90
25825;DHT22;13658;44.534;18.694;2023-01-20T10:57:16;2.70;99.90
25825;DHT22;13658;44.534;18.694;2023-01-20T10:59:54;2.90;99.90
25825;DHT22;13658;44.534;18.694;2023-01-20T11:02:31;2.80;99.90
25825;DHT22;13658;44.534;18.694;2023-01-20T11:05:02;2.80;99.90
25825;DHT22;13658;44.534;18.694;2023-01-20T11:07:31;3.10;99.90
25825;DHT22;13658;44.534;18.694;2023-01-20T11:10:00;3.00;99.90
25825;DHT22;13658;44.534;18.694;2023-01-20T11:12:36;2.50;99.90
25825;DHT22;13658;44.534;18.694;2023-01-20T11:15:29;2.80;99.90
25825;DHT22;13658;44.534;18.694;2023-01-20T11:20:59;3.00;99.90
25825;DHT22;13658;44.534;18.694;2023-01-20T11:23:36;2.60;99.90
25825;DHT22;13658;44.534;18.694;2023-01-20T11:26:29;2.70;99.90
25825;DHT22;13658;44.534;18.694;2023-01-20T11:29:00;2.60;99.90
25825;DHT22;13658;44.534;18.694;2023-01-20T11:31:43;2.50;99.90
25825;DHT22;13658;44.534;18.694;2023-01-20T11:36:48;2.20;99.90
25825;DHT22;13658;44.534;18.694;2023-01-20T11:39:26;2.20;99.90
25825;DHT22;13658;44.534;18.694;2023-01-20T11:42:24;2.20;99.90
25825;DHT22;13658;44.534;18.694;2023-01-20T11:44:53;2.10;99.90
25825;DHT22;13658;44.534;18.694;2023-01-20T11:50:39;2.00;99.90
25825;DHT22;13658;44.534;18.694;2023-01-20T11:53:16;1.80;99.90
25825;DHT22;13658;44.534;18.694;2023-01-20T11:58:19;1.80;99.90
25825;DHT22;13658;44.534;18.694;2023-01-20T12:00:45;1.80;99.90
25825;DHT22;13658;44.534;18.694;2023-01-20T12:03:43;1.60;99.90
25825;DHT22;13658;44.534;18.694;2023-01-20T12:06:28;1.70;99.90
25825;DHT22;13658;44.534;18.694;2023-01-20T12:08:58;2.00;99.90
25825;DHT22;13658;44.534;18.694;2023-01-20T12:11:52;2.10;99.90
25825;DHT22;13658;44.534;18.694;2023-01-20T12:17:15;2.10;99.90
25825;DHT22;13658;44.534;18.694;2023-01-20T12:22:43;2.00;99.90
25825;DHT22;13658;44.534;18.694;2023-01-20T12:25:37;2.00;99.90
25825;DHT22;13658;44.534;18.694;2023-01-20T12:28:18;2.20;99.90
25825;DHT22;13658;44.534;18.694;2023-01-20T12:33:24;2.10;99.90
25825;DHT22;13658;44.534;18.694;2023-01-20T12:41:47;2.20;99.90
25825;DHT22;13658;44.534;18.694;2023-01-20T13:00:58;2.50;99.90
25825;DHT22;13658;44.534;18.694;2023-01-20T13:09:13;2.30;99.90
25825;DHT22;13658;44.534;18.694;2023-01-20T13:14:37;2.30;99.90
25825;DHT22;13658;44.534;18.694;2023-01-20T13:19:42;2.50;99.90
25825;DHT22;13658;44.534;18.694;2023-01-20T13:22:22;2.50;99.90
25825;DHT22;13658;44.534;18.694;2023-01-20T13:24:57;2.40;99.90
25825;DHT22;13658;44.534;18.694;2023-01-20T13:27:32;2.40;99.90
25825;DHT22;13658;44.534;18.694;2023-01-20T13:30:01;2.40;99.90
25825;DHT22;13658;44.534;18.694;2023-01-20T13:32:35;2.60;99.90
25825;DHT22;13658;44.534;18.694;2023-01-20T13:37:57;2.70;99.90
25825;DHT22;13658;44.534;18.694;2023-01-20T13:43:03;2.60;99.90
25825;DHT22;13658;44.534;18.694;2023-01-20T13:45:32;2.30;99.90
25825;DHT22;13658;44.534;18.694;2023-01-20T13:50:31;2.10;99.90
25825;DHT22;13658;44.534;18.694;2023-01-20T13:53:01;2.10;99.90
25825;DHT22;13658;44.534;18.694;2023-01-20T13:55:53;2.00;99.90
25825;DHT22;13658;44.534;18.694;2023-01-20T13:58:29;2.10;99.90
25825;DHT22;13658;44.534;18.694;2023-01-20T14:01:04;2.10;99.90
25825;DHT22;13658;44.534;18.694;2023-01-20T14:04:04;2.40;99.90
25825;DHT22;13658;44.534;18.694;2023-01-20T14:06:30;2.50;99.90
25825;DHT22;13658;44.534;18.694;2023-01-20T14:09:00;2.60;99.90
25825;DHT22;13658;44.534;18.694;2023-01-20T14:11:28;2.50;99.90
25825;DHT22;13658;44.534;18.694;2023-01-20T14:13:57;2.30;99.90
25825;DHT22;13658;44.534;18.694;2023-01-20T14:16:29;2.40;99.90
25825;DHT22;13658;44.534;18.694;2023-01-20T14:19:03;2.40;99.90
25825;DHT22;13658;44.534;18.694;2023-01-20T14:21:39;2.40;99.90
25825;DHT22;13658;44.534;18.694;2023-01-20T14:24:05;2.40;99.90
25825;DHT22;13658;44.534;18.694;2023-01-20T14:26:31;2.30;99.90
25825;DHT22;13658;44.534;18.694;2023-01-20T14:29:00;2.30;99.90
25825;DHT22;13658;44.534;18.694;2023-01-20T14:31:34;2.40;99.90
25825;DHT22;13658;44.534;18.694;2023-01-20T14:34:27;2.40;99.90
25825;DHT22;13658;44.534;18.694;2023-01-20T14:37:02;2.40;99.90
25825;DHT22;13658;44.534;18.694;2023-01-20T14:39:47;2.20;99.90
25825;DHT22;13658;44.534;18.694;2023-01-20T14:42:19;2.20;99.90
25825;DHT22;13658;44.534;18.694;2023-01-20T14:44:48;2.30;99.90
25825;DHT22;13658;44.534;18.694;2023-01-20T14:47:15;2.30;99.90
25825;DHT22;13658;44.534;18.694;2023-01-20T14:49:41;2.30;99.90
25825;DHT22;13658;44.534;18.694;2023-01-20T14:52:29;2.40;99.90
25825;DHT22;13658;44.534;18.694;2023-01-20T14:54:56;2.40;99.90
25825;DHT22;13658;44.534;18.694;2023-01-20T15:00:03;2.20;99.90
25825;DHT22;13658;44.534;18.694;2023-01-20T15:02:35;2.20;99.90
25825;DHT22;13658;44.534;18.694;2023-01-20T15:05:11;2.00;99.90
25825;DHT22;13658;44.534;18.694;2023-01-20T15:07:42;2.00;99.90
25825;DHT22;13658;44.534;18.694;2023-01-20T15:10:14;2.00;99.90
25825;DHT22;13658;44.534;18.694;2023-01-20T15:15:29;1.80;99.90
25825;DHT22;13658;44.534;18.694;2023-01-20T15:20:35;2.00;99.90
25825;DHT22;13658;44.534;18.694;2023-01-20T15:23:02;2.00;99.90
25825;DHT22;13658;44.534;18.694;2023-01-20T15:25:28;2.00;99.90
25825;DHT22;13658;44.534;18.694;2023-01-20T15:27:55;1.80;99.90
25825;DHT22;13658;44.534;18.694;2023-01-20T15:30:23;1.70;99.90
25825;DHT22;13658;44.534;18.694;2023-01-20T15:32:53;1.90;99.90
25825;DHT22;13658;44.534;18.694;2023-01-20T15:35:22;1.80;99.90
25825;DHT22;13658;44.534;18.694;2023-01-20T15:37:50;1.70;99.90
25825;DHT22;13658;44.534;18.694;2023-01-20T15:40:19;1.70;99.90
25825;DHT22;13658;44.534;18.694;2023-01-20T15:42:46;1.80;99.90
25825;DHT22;13658;44.534;18.694;2023-01-20T15:45:16;1.90;99.90
25825;DHT22;13658;44.534;18.694;2023-01-20T15:47:44;1.70;99.90
25825;DHT22;13658;44.534;18.694;2023-01-20T15:50:15;1.70;99.90
25825;DHT22;13658;44.534;18.694;2023-01-20T15:52:42;1.70;99.90
25825;DHT22;13658;44.534;18.694;2023-01-20T15:55:15;1.80;99.90
25825;DHT22;13658;44.534;18.694;2023-01-20T15:57:42;1.70;99.90
25825;DHT22;13658;44.534;18.694;2023-01-20T16:00:20;1.90;99.90
25825;DHT22;13658;44.534;18.694;2023-01-20T16:02:46;1.70;99.90
25825;DHT22;13658;44.534;18.694;2023-01-20T16:05:12;1.90;99.90
25825;DHT22;13658;44.534;18.694;2023-01-20T16:07:40;1.60;99.90
25825;DHT22;13658;44.534;18.694;2023-01-20T16:10:18;1.80;99.90
25825;DHT22;13658;44.534;18.694;2023-01-20T16:12:45;1.70;99.90
25825;DHT22;13658;44.534;18.694;2023-01-20T16:15:15;1.70;99.90
25825;DHT22;13658;44.534;18.694;2023-01-20T16:17:42;1.60;99.90
25825;DHT22;13658;44.534;18.694;2023-01-20T16:20:18;1.70;99.90
25825;DHT22;13658;44.534;18.694;2023-01-20T16:22:45;1.60;99.90
25825;DHT22;13658;44.534;18.694;2023-01-20T16:25:11;1.70;99.90
25825;DHT22;13658;44.534;18.694;2023-01-20T16:27:36;1.60;99.90
25825;DHT22;13658;44.534;18.694;2023-01-20T16:30:03;1.60;99.90
25825;DHT22;13658;44.534;18.694;2023-01-20T16:32:29;1.50;99.90
25825;DHT22;13658;44.534;18.694;2023-01-20T16:34:55;1.50;99.90
25825;DHT22;13658;44.534;18.694;2023-01-20T16:37:21;1.50;99.90
25825;DHT22;13658;44.534;18.694;2023-01-20T16:39:47;1.50;99.90
25825;DHT22;13658;44.534;18.694;2023-01-20T16:42:13;1.50;99.90
25825;DHT22;13658;44.534;18.694;2023-01-20T16:44:39;1.50;99.90
25825;DHT22;13658;44.534;18.694;2023-01-20T16:47:05;1.50;99.90
25825;DHT22;13658;44.534;18.694;2023-01-20T16:49:33;1.50;99.90
25825;DHT22;13658;44.534;18.694;2023-01-20T16:51:59;1.40;99.90
25825;DHT22;13658;44.534;18.694;2023-01-20T16:54:25;1.50;99.90
25825;DHT22;13658;44.534;18.694;2023-01-20T16:56:51;1.70;99.90
25825;DHT22;13658;44.534;18.694;2023-01-20T16:59:16;1.80;99.90
25825;DHT22;13658;44.534;18.694;2023-01-20T17:01:46;1.80;99.90
25825;DHT22;13658;44.534;18.694;2023-01-20T17:04:13;1.70;99.90
25825;DHT22;13658;44.534;18.694;2023-01-20T17:06:39;1.70;99.90
25825;DHT22;13658;44.534;18.694;2023-01-20T17:09:05;1.80;99.90
25825;DHT22;13658;44.534;18.694;2023-01-20T17:11:34;1.80;99.90
25825;DHT22;13658;44.534;18.694;2023-01-20T17:14:02;1.70;99.90
25825;DHT22;13658;44.534;18.694;2023-01-20T17:16:29;1.60;99.90
25825;DHT22;13658;44.534;18.694;2023-01-20T17:18:57;1.70;99.90
25825;DHT22;13658;44.534;18.694;2023-01-20T17:21:25;1.60;99.90
25825;DHT22;13658;44.534;18.694;2023-01-20T17:23:58;1.70;99.90
25825;DHT22;13658;44.534;18.694;2023-01-20T17:26:25;1.60;99.90
25825;DHT22;13658;44.534;18.694;2023-01-20T17:28:55;1.60;99.90
25825;DHT22;13658;44.534;18.694;2023-01-20T17:31:22;1.50;99.90
25825;DHT22;13658;44.534;18.694;2023-01-20T17:33:48;1.60;99.90
25825;DHT22;13658;44.534;18.694;2023-01-20T17:36:15;1.40;99.90
25825;DHT22;13658;44.534;18.694;2023-01-20T17:38:42;1.40;99.90
25825;DHT22;13658;44.534;18.694;2023-01-20T17:41:09;1.40;99.90
25825;DHT22;13658;44.534;18.694;2023-01-20T17:43:37;1.30;99.90
25825;DHT22;13658;44.534;18.694;2023-01-20T17:46:15;1.30;99.90
25825;DHT22;13658;44.534;18.694;2023-01-20T17:48:42;1.20;99.90
25825;DHT22;13658;44.534;18.694;2023-01-20T17:51:16;1.20;99.90
25825;DHT22;13658;44.534;18.694;2023-01-20T17:53:43;1.10;99.90